Home PIREPS Pireps

Flight BEL5374

  • Submitted By: Vincent Fourni
  • Departure Airport: Bruxelles National (EBBR)
  • Arrival Airport: Riga West (EVRA)
  • Aircraft: BAE AVRO RJ1 (OO-DWE)
  • Flight Time: 02.20
  • Date Submitted: 23/01/2018
  • Status: Accepted
Flight Details
Gross Revenue:
(77 load / € 194.00 per unit
€ 14,938.00
Fuel Cost:
(5617 fuel used @ 5.1 / unit)
€ 28,646.70

Additional Log Information:

View Log

Aircraft Used in flight is PMDG 737-800NGX Brussels Airlines Winglets
09:45 Brakes are On
09:47 Brakes are Released
09:48 Brakes are On
09:50 Brakes are Released
09:55 You Took off @ 158 Knots and Flaps at Position 3
Departure Weather
EBBR 230820Z 21008KT 9999 FEW015 BKN035 07/05 Q1022 NOSIGrn
09:55 Landing Gear Up @ 164 Knots and 380 Feet
09:56 Below FL100 you need to turn on the landing lights
12:00 Landing Gear Down @ 188 Knots and 2160 Feet
12:04 You Landed @ 131 Knots and with -300 Vertical Speed
Arrival Weather
EVRA 231050Z 22009KT 9999 OVC007 M07/M08 Q1026 R18/490195 NOSIGrn
12:04 Paused
12:08 Unpaused
12:08 Brakes are On
12:09 Brussels Bel-Track1.0.1.2

Route Map

Corporate About Us Our Team Vacancies Information Fleet Route Network Rules and Regulations Operations Flight Schedules Event Center Tours Partners IVAO Vatsim Acars dev FSCB

fb Users Online Belgium Dominique Dory, South Africa Marc Toussaint,
2 Pilot(s) and 137 Guest(s) Online
CMS by phpVMS - Design by Crazycreatives.com - Copyright © 2020 - Brussels Airlines Virtual